createdAt,value
2016-01-21T16:38:05.000Z,72.11
2016-01-21T16:39:04.736Z,72.39
2016-01-21T16:42:10.188Z,73.24
2016-01-21T16:43:10.190Z,72.58
2016-01-21T16:44:10.162Z,72.77
2016-01-21T16:45:10.133Z,72.96
2016-01-21T16:46:10.057Z,73.24
2016-01-21T16:47:10.044Z,72.96
2016-01-21T16:48:10.047Z,72.77
2016-01-21T16:49:10.035Z,73.24
2016-01-21T16:50:10.084Z,73.05
2016-01-21T16:51:10.055Z,72.58
2016-01-21T16:52:10.057Z,72.67
2016-01-21T16:53:10.060Z,72.77
2016-01-21T16:54:10.110Z,72.96
2016-01-21T16:55:10.018Z,73.24
2016-01-21T16:56:10.006Z,73.43
2016-01-21T16:57:09.993Z,73.52
2016-01-21T16:58:09.996Z,73.43
2016-01-21T16:59:09.983Z,74.28
2016-01-21T17:00:10.001Z,74
2016-01-21T17:01:10.020Z,74.85
2016-01-21T17:02:09.992Z,74.47
2016-01-21T17:03:09.962Z,74.76
2016-01-21T17:04:09.950Z,74.66
2016-01-21T17:05:09.983Z,75.6
2016-01-21T17:06:09.940Z,75.51
2016-01-21T17:07:09.958Z,75.51
2016-01-21T17:08:09.945Z,75.32
2016-01-21T17:09:09.932Z,75.51
2016-01-21T17:10:10.388Z,75.42
2016-01-21T17:11:09.921Z,74.66
2016-01-21T17:12:09.924Z,74.66
2016-01-21T17:13:09.912Z,74.95
2016-01-21T17:14:09.913Z,74.66
2016-01-21T17:15:09.902Z,74.66
2016-01-21T17:16:09.888Z,75.32
2016-01-21T17:17:09.891Z,75.32
2016-01-21T17:18:09.878Z,75.32
2016-01-21T17:19:09.881Z,75.32
2016-01-21T17:20:09.868Z,75.23
2016-01-21T17:21:09.871Z,74.76
2016-01-21T17:22:09.858Z,75.23
2016-01-21T17:23:09.860Z,75.42
2016-01-21T17:24:09.864Z,75.42
2016-01-21T17:25:09.836Z,75.51
2016-01-21T17:26:09.838Z,75.7
2016-01-21T17:27:09.840Z,75.51
2016-01-21T17:28:09.890Z,75.51
2016-01-21T17:29:09.893Z,75.79
2016-01-21T17:30:09.818Z,75.6
2016-01-21T17:31:09.804Z,75.98
2016-01-21T17:32:09.979Z,75.98
2016-01-21T17:33:09.794Z,76.45
2016-01-21T17:34:09.782Z,76.45
2016-01-21T17:35:09.785Z,76.83
2016-01-21T17:36:09.896Z,75.89
2016-01-21T17:37:09.804Z,75.98
2016-01-21T17:38:09.792Z,75.98
2016-01-21T17:39:09.795Z,76.45
2016-01-21T17:40:09.766Z,76.45
2016-01-21T17:41:09.769Z,76.64
2016-01-21T17:42:09.740Z,76.64
2016-01-21T17:43:09.743Z,76.64
2016-01-21T17:44:09.746Z,76.83
2016-01-21T17:45:09.748Z,76.83
2016-01-21T17:46:09.814Z,77.4
2016-01-21T17:47:09.738Z,77.4
2016-01-21T17:48:09.732Z,77.12
2016-01-21T17:49:09.749Z,77.12
2016-01-21T17:50:09.721Z,77.21
2016-01-21T17:51:09.693Z,77.55
2016-01-21T17:52:09.696Z,77.83
2016-01-21T17:53:09.682Z,78.12
2016-01-21T17:54:09.670Z,78.21
2016-01-21T17:55:09.673Z,78.21
2016-01-21T17:56:09.675Z,78.59
2016-01-21T17:57:09.678Z,78.78
2016-01-21T17:58:09.649Z,78.97
2016-01-21T17:59:09.512Z,78.87
2016-01-21T18:00:09.654Z,79.06
2016-01-21T18:01:09.626Z,78.78
2016-01-21T18:02:09.629Z,78.97
2016-01-21T18:03:09.631Z,78.87
2016-01-21T18:04:09.620Z,78.59
2016-01-21T18:05:09.622Z,78.78
2016-01-21T18:06:09.608Z,79.06
2016-01-21T18:07:09.627Z,78.87
2016-01-21T18:08:09.598Z,78.68
2016-01-21T18:09:09.633Z,79.16
2016-01-21T18:10:09.666Z,79.06
2016-01-21T18:11:09.575Z,78.97
2016-01-21T18:12:09.562Z,79.53
2016-01-21T18:13:09.611Z,79.82
2016-01-21T18:14:09.567Z,80.29
2016-01-21T18:15:09.554Z,80.19
2016-01-21T18:16:09.557Z,80.1
2016-01-21T18:17:09.529Z,80.57
2016-01-21T18:18:09.532Z,80.48
2016-01-21T18:19:09.534Z,80.76
2016-01-21T18:20:09.521Z,80.76
2016-01-21T18:21:09.508Z,80.76
2016-01-21T18:22:09.511Z,80.85
2016-01-21T18:23:09.529Z,80.76
2016-01-21T18:24:09.532Z,80.76
2016-01-21T18:25:09.503Z,80.66
2016-01-21T18:26:09.490Z,80.85
2016-01-21T18:27:09.493Z,80.48
2016-01-21T18:28:09.480Z,80.66
2016-01-21T18:29:09.468Z,80.66
2016-01-21T18:30:09.470Z,80.76
2016-01-21T18:31:09.457Z,80.29
2016-01-21T18:32:09.459Z,80.29
2016-01-21T18:33:09.447Z,80.19
2016-01-21T18:34:09.465Z,80
2016-01-21T18:35:09.421Z,80.66
2016-01-21T18:36:09.423Z,80.1
2016-01-21T18:37:09.426Z,79.82
2016-01-21T18:38:09.395Z,80
2016-01-21T18:39:09.402Z,79.72
2016-01-21T18:40:09.377Z,79.25
2016-01-21T18:41:09.351Z,79.06
2016-01-21T18:42:09.359Z,79.25
2016-01-21T18:43:09.319Z,79.16
2016-01-21T18:44:09.302Z,79.16
2016-01-21T18:45:09.301Z,78.97
2016-01-21T18:46:09.316Z,79.16
2016-01-21T18:47:09.267Z,78.97
2016-01-21T18:48:09.249Z,78.97
2016-01-21T18:49:09.251Z,79.16
2016-01-21T18:50:09.252Z,78.87
2016-01-21T18:51:09.254Z,79.25
2016-01-21T18:52:09.223Z,79.35
2016-01-21T18:53:09.225Z,78.97
2016-01-21T18:54:09.227Z,79.53
2016-01-21T18:55:09.230Z,79.16
2016-01-21T18:56:09.199Z,79.25
2016-01-21T18:57:09.216Z,78.97
2016-01-21T18:58:09.203Z,78.68
2016-01-21T18:59:09.174Z,78.59
2016-01-21T19:00:09.177Z,79.06
2016-01-21T19:01:09.163Z,78.78
2016-01-21T19:02:09.166Z,78.68
2016-01-21T19:03:09.155Z,78.5
2016-01-21T19:04:09.142Z,78.59
2016-01-21T19:05:09.129Z,78.21
2016-01-21T19:06:09.132Z,78.68
2016-01-21T19:07:09.118Z,78.78
2016-01-21T19:08:09.121Z,79.06
2016-01-21T19:09:09.109Z,78.59
2016-01-21T19:10:09.126Z,78.87
2016-01-21T19:11:09.098Z,79.44
2016-01-21T19:12:09.086Z,79.16
2016-01-21T19:13:09.229Z,79.25
2016-01-21T19:14:09.076Z,79.06
2016-01-21T19:46:40.724Z,81.2
2016-01-21T19:47:09.399Z,81.2
2016-01-21T19:48:09.387Z,81.38
2016-01-21T19:49:09.389Z,81.2
2016-01-21T19:50:09.392Z,81.57
2016-01-21T19:51:09.395Z,82.14
2016-01-21T19:52:09.366Z,81.95
2016-01-21T19:53:09.368Z,81.95
2016-01-21T19:54:09.356Z,81.85
2016-01-21T19:55:09.342Z,82.42
2016-01-21T19:56:09.345Z,82.8
2016-01-21T19:57:09.332Z,82.61
2016-01-21T19:58:09.367Z,82.7
2016-01-21T19:59:09.322Z,82.7
2016-01-21T20:00:09.309Z,82.42
2016-01-21T20:01:09.312Z,82.61
2016-01-21T20:02:09.300Z,82.51
2016-01-21T20:03:09.302Z,82.99
2016-01-21T20:04:09.288Z,82.8
2016-01-21T20:05:09.292Z,83.27
2016-01-21T20:06:09.264Z,83.17
2016-01-21T20:07:09.250Z,83.08
2016-01-21T20:08:09.316Z,83.27
2016-01-21T20:09:09.239Z,82.61
2016-01-21T20:10:09.242Z,82.99
2016-01-21T20:11:09.229Z,83.27
2016-01-21T20:12:09.232Z,83.27
2016-01-21T20:13:09.204Z,82.61
2016-01-21T20:14:09.207Z,83.27
2016-01-21T20:15:09.210Z,82.8
2016-01-21T20:16:09.197Z,82.8
2016-01-21T20:17:09.183Z,82.89
2016-01-21T20:18:09.186Z,83.08
2016-01-21T20:19:09.173Z,83.27
2016-01-21T20:20:09.160Z,82.99
2016-01-21T20:21:09.147Z,82.99
2016-01-21T20:22:09.149Z,83.08
2016-01-21T20:23:09.153Z,83.17
2016-01-21T20:24:09.124Z,82.99
2016-01-21T20:25:09.127Z,83.27
2016-01-21T20:26:09.130Z,83.17
2016-01-21T20:27:09.132Z,83.84
2016-01-21T20:28:09.120Z,83.74
2016-01-21T20:29:09.262Z,83.74
2016-01-21T20:30:09.125Z,83.65
2016-01-21T20:31:09.081Z,83.65
2016-01-21T20:32:09.084Z,83.17
2016-01-21T20:33:09.054Z,83.17
2016-01-21T20:34:09.057Z,83.08
2016-01-21T20:35:09.060Z,82.99
2016-01-21T20:36:09.078Z,83.08
2016-01-21T20:37:09.425Z,83.61
2016-01-21T20:38:09.037Z,83.61
2016-01-21T20:39:09.039Z,83.7
2016-01-21T20:40:09.027Z,83.7
2016-01-21T20:41:09.014Z,83.46
2016-01-21T20:42:09.000Z,83.61
2016-01-21T20:43:08.988Z,83.61
2016-01-21T20:44:08.975Z,83.51
2016-01-21T20:45:08.978Z,83.51
2016-01-21T20:46:08.980Z,83.98
2016-01-21T20:47:08.967Z,84.08
2016-01-21T20:48:08.954Z,83.51
2016-01-21T20:49:09.316Z,83.42
2016-01-21T20:50:08.943Z,83.51
2016-01-21T20:51:08.932Z,83.89
2016-01-21T20:52:08.935Z,84.08
2016-01-21T20:53:08.921Z,84.08
2016-01-21T20:54:08.908Z,84.17
2016-01-21T20:55:08.910Z,83.89
2016-01-21T20:56:08.898Z,84.64
2016-01-21T20:57:08.885Z,84.55
2016-01-21T20:58:08.872Z,84.27
2016-01-21T20:59:08.874Z,84.36
2016-01-21T21:00:08.862Z,84.17
2016-01-21T21:01:08.865Z,84.36
2016-01-21T21:02:08.852Z,84.74
2016-01-21T21:03:08.854Z,84.64
2016-01-21T21:04:08.847Z,85.21
2016-01-21T21:05:08.818Z,85.21
2016-01-21T21:06:08.821Z,85.68
2016-01-21T21:07:08.793Z,85.68
2016-01-21T21:08:08.999Z,85.96
2016-01-21T21:09:08.799Z,85.87
2016-01-21T21:10:08.785Z,85.96
2016-01-21T21:11:08.780Z,85.87
2016-01-21T21:12:08.797Z,85.77
2016-01-21T21:13:08.605Z,85.96
2016-01-21T21:14:08.726Z,85.77
2016-01-21T21:15:08.772Z,85.87
2016-01-21T21:16:08.746Z,85.87
2016-01-21T21:17:08.718Z,85.68
2016-01-21T21:18:08.721Z,85.87
2016-01-21T21:19:08.723Z,85.87
2016-01-21T21:20:08.715Z,85.87
2016-01-21T21:21:08.936Z,85.59
2016-01-21T21:22:08.689Z,85.68
2016-01-21T21:23:08.677Z,85.77
2016-01-21T21:24:08.663Z,85.59
2016-01-21T21:25:08.666Z,85.68
2016-01-21T21:26:08.653Z,85.87
2016-01-21T21:27:08.640Z,85.87
2016-01-21T21:28:08.643Z,85.87
2016-01-21T21:29:08.630Z,85.68
2016-01-21T21:30:08.617Z,85.77
2016-01-21T21:31:08.620Z,86.06
2016-01-21T21:32:08.606Z,86.25
2016-01-21T21:33:08.594Z,85.68
2016-01-21T21:34:08.597Z,85.77
2016-01-21T21:35:08.587Z,86.06
2016-01-21T21:36:08.573Z,86.15
2016-01-21T21:37:08.560Z,85.68
2016-01-21T21:38:08.563Z,85.96
2016-01-21T21:39:08.535Z,86.44
2016-01-21T21:40:08.537Z,86.25
2016-01-21T21:41:08.525Z,86.53
2016-01-21T21:42:08.528Z,86.25
2016-01-21T21:43:08.530Z,86.53
2016-01-21T21:44:08.501Z,86.15
2016-01-21T21:45:08.498Z,86.34
2016-01-21T21:46:08.501Z,86.34
2016-01-21T21:47:08.489Z,86.53
2016-01-21T21:48:08.475Z,86.25
2016-01-21T21:49:08.463Z,86.44
2016-01-21T21:50:08.465Z,85.77
2016-01-21T21:51:08.455Z,85.87
2016-01-21T21:52:08.443Z,85.4
2016-01-21T21:53:08.445Z,85.3
2016-01-21T21:54:08.433Z,85.49
2016-01-21T21:55:08.404Z,85.11
2016-01-21T21:56:08.423Z,84.92
2016-01-21T21:57:08.425Z,84.92
2016-01-21T21:58:08.396Z,84.64
2016-01-21T21:59:08.400Z,84.74
2016-01-21T22:00:08.403Z,84.74
2016-01-21T22:01:08.420Z,84.92
2016-01-21T22:02:08.360Z,84.92
2016-01-21T22:03:08.364Z,85.11
2016-01-21T22:04:08.350Z,85.11
2016-01-21T22:05:08.338Z,85.49
2016-01-21T22:06:08.329Z,85.49
2016-01-21T22:07:08.331Z,85.49
2016-01-21T22:08:08.318Z,85.49
2016-01-21T22:09:08.305Z,85.3
2016-01-21T22:10:08.293Z,85.4
2016-01-21T22:11:08.295Z,85.3
2016-01-21T22:12:08.297Z,85.3
2016-01-21T22:13:08.284Z,85.59
2016-01-21T22:14:08.272Z,85.3
2016-01-21T22:15:08.259Z,85.21
2016-01-21T22:16:08.251Z,85.49
2016-01-21T22:17:08.239Z,85.21
2016-01-21T22:18:08.225Z,85.68
2016-01-21T22:19:08.244Z,84.83
2016-01-21T22:20:08.216Z,84.64
2016-01-21T22:21:08.065Z,84.74
2016-01-21T22:22:08.193Z,84.36
2016-01-21T22:23:08.194Z,84.45
2016-01-21T22:24:08.194Z,85.02
2016-01-21T22:25:08.192Z,84.92
2016-01-21T22:26:08.177Z,84.64
2016-01-21T22:27:08.153Z,84.64
2016-01-21T22:28:08.156Z,84.55
2016-01-21T22:29:08.139Z,84.64
2016-01-21T22:30:08.147Z,84.08
2016-01-21T22:31:08.135Z,83.51
2016-01-21T22:32:08.133Z,83.8
2016-01-21T22:33:08.111Z,83.8
2016-01-21T22:34:08.101Z,83.61
2016-01-21T22:35:08.085Z,83.8
2016-01-21T22:36:07.924Z,83.61
2016-01-21T22:37:08.085Z,83.51
2016-01-21T22:38:08.070Z,83.51
2016-01-21T22:39:08.065Z,83.51
2016-01-21T22:40:08.086Z,83.7
2016-01-21T22:41:08.041Z,83.8
2016-01-21T22:42:08.064Z,83.14
2016-01-21T22:43:08.025Z,83.14
2016-01-21T22:44:08.472Z,83.23
2016-01-21T22:45:08.109Z,83.04
2016-01-21T22:46:08.000Z,83.61
2016-01-21T22:47:07.995Z,83.61
2016-01-21T22:48:07.995Z,83.7
2016-01-21T22:49:07.976Z,83.42
2016-01-21T22:50:07.973Z,83.51
2016-01-21T22:51:07.966Z,83.51
2016-01-21T22:52:07.966Z,83.42
2016-01-21T22:53:07.956Z,83.23
2016-01-21T22:54:07.936Z,83.8
2016-01-21T22:55:07.925Z,83.14
2016-01-21T22:56:07.921Z,83.23
2016-01-21T22:57:07.925Z,82.76
2016-01-21T22:58:07.958Z,82.57
2016-01-21T22:59:07.900Z,82.76
2016-01-21T23:00:07.883Z,82.57
2016-01-21T23:01:07.884Z,82.66
2016-01-21T23:02:07.876Z,82.7
2016-01-21T23:03:07.877Z,82.14
2016-01-21T23:04:07.854Z,81.95
2016-01-21T23:05:07.850Z,81.48
2016-01-21T23:06:07.850Z,81.76
2016-01-21T23:07:08.142Z,81.57
2016-01-21T23:08:07.824Z,81.1
2016-01-21T23:09:07.823Z,81.1
2016-01-21T23:10:07.823Z,80.82
2016-01-21T23:11:07.794Z,81.38
2016-01-21T23:12:07.783Z,81.38
2016-01-21T23:13:07.789Z,81.1
2016-01-21T23:14:07.778Z,80.63
2016-01-21T23:15:07.781Z,80.53
2016-01-21T23:16:07.756Z,80.44
2016-01-21T23:17:07.751Z,80.63
2016-01-21T23:18:07.729Z,80.34
2016-01-21T23:19:07.735Z,80.96
2016-01-21T23:20:07.726Z,80.68
2016-01-21T23:21:07.707Z,80.58
2016-01-21T23:22:07.708Z,80.68
2016-01-21T23:23:07.703Z,80.68
2016-01-21T23:24:07.695Z,81.1
2016-01-21T23:25:07.679Z,80.96
2016-01-21T23:26:07.678Z,80.68
2016-01-21T23:27:07.678Z,80.77
2016-01-21T23:28:07.645Z,81.24
2016-01-21T23:29:07.642Z,80.77
2016-01-21T23:30:07.635Z,81.15
2016-01-21T23:31:07.632Z,80.4
2016-01-21T23:32:07.619Z,80.87
2016-01-21T23:33:08.042Z,80.77
2016-01-21T23:34:07.620Z,81.1
2016-01-21T23:35:07.604Z,81.05
2016-01-21T23:36:07.588Z,80.4
2016-01-21T23:37:07.580Z,80.58
2016-01-21T23:38:07.574Z,80.3
2016-01-21T23:39:07.560Z,80.68
2016-01-21T23:40:07.546Z,80.77
2016-01-21T23:41:07.542Z,80.58
2016-01-21T23:42:07.551Z,80.96
2016-01-21T23:43:07.525Z,81.34
2016-01-21T23:44:07.517Z,80.96
2016-01-21T23:45:07.514Z,80.87
2016-01-21T23:46:07.507Z,80.68
2016-01-21T23:47:07.561Z,81.05
2016-01-21T23:48:07.490Z,80.96
2016-01-21T23:49:07.489Z,80.96
2016-01-21T23:50:07.471Z,80.4
2016-01-21T23:51:07.468Z,80.4
2016-01-21T23:52:07.461Z,80.4
2016-01-21T23:53:07.447Z,81.05
2016-01-21T23:54:07.430Z,80.68
2016-01-21T23:55:07.430Z,80.87
2016-01-21T23:56:07.425Z,80.77
2016-01-21T23:57:07.414Z,80.96
2016-01-21T23:58:07.399Z,81.05
2016-01-21T23:59:07.482Z,81.24
